Impacts TAF Board
For situational awareness. Not to be used for flight planning purposes.
IDs:

KPHX - Phoenix/Sky Harbor, AZ, US

Issued at 0909 UTC 24 Jan 2021
Updated at 1134 UTC 24 Jan 2021
Potential Impact None Slight Moderate High
Time<<25/12Z 25/13Z 25/14Z 25/15Z 25/16Z 25/17Z 25/18Z 25/19Z 25/20Z 25/21Z 25/22Z 25/23Z 26/00Z
Type
VIS
CIG
Cover
FltCat
WX
WDir
WSpd
WGst
Raw TAF
KPHX 240909Z 2409/2512 17007KT P6SM VCSH SCT030 BKN050
  FM241700 25009KT P6SM VCSH SCT030 BKN050
  FM250200 21005KT P6SM VCSH SCT040 OVC060
  FM250900 16007KT P6SM VCSH SCT040 BKN060


METAR Board
Radar Display
Forecast Discussion
For situational awareness. Not to be used for flight planning purposes.